sensor_id;sensor_type;location;lat;lon;timestamp;temperature;humidity
7411;DHT22;3747;48.628;9.058;2023-02-07T00:01:29;-2.10;99.90
7411;DHT22;3747;48.628;9.058;2023-02-07T00:03:57;-2.20;99.90
7411;DHT22;3747;48.628;9.058;2023-02-07T00:06:25;-2.30;99.90
7411;DHT22;3747;48.628;9.058;2023-02-07T00:08:53;-2.40;99.90
7411;DHT22;3747;48.628;9.058;2023-02-07T00:11:20;-2.50;99.90
7411;DHT22;3747;48.628;9.058;2023-02-07T00:13:49;-2.50;99.90
7411;DHT22;3747;48.628;9.058;2023-02-07T00:16:17;-2.60;99.90
7411;DHT22;3747;48.628;9.058;2023-02-07T00:18:44;-2.70;99.90
7411;DHT22;3747;48.628;9.058;2023-02-07T00:21:14;-2.70;99.90
7411;DHT22;3747;48.628;9.058;2023-02-07T00:23:41;-2.80;99.90
7411;DHT22;3747;48.628;9.058;2023-02-07T00:26:09;-2.90;99.90
7411;DHT22;3747;48.628;9.058;2023-02-07T00:28:36;-2.90;99.90
7411;DHT22;3747;48.628;9.058;2023-02-07T00:31:04;-3.00;99.90
7411;DHT22;3747;48.628;9.058;2023-02-07T00:33:31;-3.10;99.90
7411;DHT22;3747;48.628;9.058;2023-02-07T00:35:57;-3.10;99.90
7411;DHT22;3747;48.628;9.058;2023-02-07T00:38:26;-3.10;99.90
7411;DHT22;3747;48.628;9.058;2023-02-07T00:40:53;-3.10;99.90
7411;DHT22;3747;48.628;9.058;2023-02-07T00:43:19;-3.20;99.90
7411;DHT22;3747;48.628;9.058;2023-02-07T00:45:46;-3.20;99.90
7411;DHT22;3747;48.628;9.058;2023-02-07T00:48:13;-3.20;99.90
7411;DHT22;3747;48.628;9.058;2023-02-07T00:50:39;-3.20;99.90
7411;DHT22;3747;48.628;9.058;2023-02-07T00:53:07;-3.30;99.90
7411;DHT22;3747;48.628;9.058;2023-02-07T00:55:35;-3.30;99.90
7411;DHT22;3747;48.628;9.058;2023-02-07T00:58:02;-3.30;99.90
7411;DHT22;3747;48.628;9.058;2023-02-07T01:00:29;-3.30;99.90
7411;DHT22;3747;48.628;9.058;2023-02-07T01:02:55;-3.40;99.90
7411;DHT22;3747;48.628;9.058;2023-02-07T01:05:23;-3.50;99.90
7411;DHT22;3747;48.628;9.058;2023-02-07T01:07:49;-3.50;99.90
7411;DHT22;3747;48.628;9.058;2023-02-07T01:10:16;-3.60;99.90
7411;DHT22;3747;48.628;9.058;2023-02-07T01:12:44;-3.60;99.90
7411;DHT22;3747;48.628;9.058;2023-02-07T01:15:11;-3.60;99.90
7411;DHT22;3747;48.628;9.058;2023-02-07T01:17:38;-3.60;99.90
7411;DHT22;3747;48.628;9.058;2023-02-07T01:20:05;-3.60;99.90
7411;DHT22;3747;48.628;9.058;2023-02-07T01:22:32;-3.60;99.90
7411;DHT22;3747;48.628;9.058;2023-02-07T01:24:59;-3.60;99.90
7411;DHT22;3747;48.628;9.058;2023-02-07T01:27:25;-3.60;99.90
7411;DHT22;3747;48.628;9.058;2023-02-07T01:29:53;-3.60;99.90
7411;DHT22;3747;48.628;9.058;2023-02-07T01:32:20;-3.60;99.90
7411;DHT22;3747;48.628;9.058;2023-02-07T01:34:47;-3.60;99.90
7411;DHT22;3747;48.628;9.058;2023-02-07T01:37:13;-3.60;99.90
7411;DHT22;3747;48.628;9.058;2023-02-07T01:39:40;-3.50;99.90
7411;DHT22;3747;48.628;9.058;2023-02-07T01:42:10;-3.50;99.90
7411;DHT22;3747;48.628;9.058;2023-02-07T01:45:08;-3.60;99.90
7411;DHT22;3747;48.628;9.058;2023-02-07T01:47:38;-3.70;99.90
7411;DHT22;3747;48.628;9.058;2023-02-07T01:50:05;-3.70;99.90
7411;DHT22;3747;48.628;9.058;2023-02-07T01:52:35;-3.70;99.90
7411;DHT22;3747;48.628;9.058;2023-02-07T01:55:08;-3.60;99.90
7411;DHT22;3747;48.628;9.058;2023-02-07T01:57:35;-3.60;99.90
7411;DHT22;3747;48.628;9.058;2023-02-07T02:00:03;-3.50;99.90
7411;DHT22;3747;48.628;9.058;2023-02-07T02:02:34;-3.30;99.90
7411;DHT22;3747;48.628;9.058;2023-02-07T02:05:03;-3.20;99.90
7411;DHT22;3747;48.628;9.058;2023-02-07T02:07:30;-3.10;99.90
7411;DHT22;3747;48.628;9.058;2023-02-07T02:09:58;-3.00;99.90
7411;DHT22;3747;48.628;9.058;2023-02-07T02:12:35;-2.90;99.90
7411;DHT22;3747;48.628;9.058;2023-02-07T02:15:13;-2.90;99.90
7411;DHT22;3747;48.628;9.058;2023-02-07T02:18:01;-2.80;99.90
7411;DHT22;3747;48.628;9.058;2023-02-07T02:21:02;-2.80;99.90
7411;DHT22;3747;48.628;9.058;2023-02-07T02:23:43;-2.80;99.90
7411;DHT22;3747;48.628;9.058;2023-02-07T02:26:51;-2.80;99.90
7411;DHT22;3747;48.628;9.058;2023-02-07T02:29:52;-2.90;99.90
7411;DHT22;3747;48.628;9.058;2023-02-07T02:32:52;-3.00;99.90
7411;DHT22;3747;48.628;9.058;2023-02-07T02:35:29;-3.10;99.90
7411;DHT22;3747;48.628;9.058;2023-02-07T02:38:02;-3.30;99.90
7411;DHT22;3747;48.628;9.058;2023-02-07T02:40:39;-3.40;99.90
7411;DHT22;3747;48.628;9.058;2023-02-07T02:43:12;-3.50;99.90
7411;DHT22;3747;48.628;9.058;2023-02-07T02:45:45;-3.60;99.90
7411;DHT22;3747;48.628;9.058;2023-02-07T02:48:15;-3.70;99.90
7411;DHT22;3747;48.628;9.058;2023-02-07T02:50:45;-3.70;99.90
7411;DHT22;3747;48.628;9.058;2023-02-07T02:53:12;-3.70;99.90
7411;DHT22;3747;48.628;9.058;2023-02-07T02:56:12;-3.70;99.90
7411;DHT22;3747;48.628;9.058;2023-02-07T02:58:50;-3.80;99.90
7411;DHT22;3747;48.628;9.058;2023-02-07T03:01:23;-3.90;99.90
7411;DHT22;3747;48.628;9.058;2023-02-07T03:04:04;-3.90;99.90
7411;DHT22;3747;48.628;9.058;2023-02-07T03:06:47;-3.90;99.90
7411;DHT22;3747;48.628;9.058;2023-02-07T03:09:25;-3.90;99.90
7411;DHT22;3747;48.628;9.058;2023-02-07T03:12:01;-3.90;99.90
7411;DHT22;3747;48.628;9.058;2023-02-07T03:14:35;-3.90;99.90
7411;DHT22;3747;48.628;9.058;2023-02-07T03:17:13;-4.00;99.90
7411;DHT22;3747;48.628;9.058;2023-02-07T03:19:46;-4.00;99.90
7411;DHT22;3747;48.628;9.058;2023-02-07T03:22:18;-4.00;99.90
7411;DHT22;3747;48.628;9.058;2023-02-07T03:24:48;-4.10;99.90
7411;DHT22;3747;48.628;9.058;2023-02-07T03:27:18;-4.20;99.90
7411;DHT22;3747;48.628;9.058;2023-02-07T03:29:48;-4.20;99.90
7411;DHT22;3747;48.628;9.058;2023-02-07T03:32:17;-4.20;99.90
7411;DHT22;3747;48.628;9.058;2023-02-07T03:34:49;-4.30;99.90
7411;DHT22;3747;48.628;9.058;2023-02-07T03:37:21;-4.30;99.90
7411;DHT22;3747;48.628;9.058;2023-02-07T03:39:51;-4.40;99.90
7411;DHT22;3747;48.628;9.058;2023-02-07T03:42:22;-4.40;99.90
7411;DHT22;3747;48.628;9.058;2023-02-07T03:44:51;-4.50;99.90
7411;DHT22;3747;48.628;9.058;2023-02-07T03:47:19;-4.50;99.90
7411;DHT22;3747;48.628;9.058;2023-02-07T03:49:47;-4.70;99.90
7411;DHT22;3747;48.628;9.058;2023-02-07T03:52:14;-4.70;99.90
7411;DHT22;3747;48.628;9.058;2023-02-07T03:54:41;-4.80;99.90
7411;DHT22;3747;48.628;9.058;2023-02-07T03:57:07;-4.80;99.90
7411;DHT22;3747;48.628;9.058;2023-02-07T03:59:34;-4.80;99.90
7411;DHT22;3747;48.628;9.058;2023-02-07T04:02:01;-4.90;99.90
7411;DHT22;3747;48.628;9.058;2023-02-07T04:04:28;-4.90;99.90
7411;DHT22;3747;48.628;9.058;2023-02-07T04:06:56;-4.90;99.90
7411;DHT22;3747;48.628;9.058;2023-02-07T04:09:23;-4.90;99.90
7411;DHT22;3747;48.628;9.058;2023-02-07T04:11:50;-4.90;99.90
7411;DHT22;3747;48.628;9.058;2023-02-07T04:14:17;-5.10;99.90
7411;DHT22;3747;48.628;9.058;2023-02-07T04:16:45;-5.40;99.90
7411;DHT22;3747;48.628;9.058;2023-02-07T04:19:12;-5.40;99.90
7411;DHT22;3747;48.628;9.058;2023-02-07T04:21:39;-5.50;99.90
7411;DHT22;3747;48.628;9.058;2023-02-07T04:24:08;-5.50;99.90
7411;DHT22;3747;48.628;9.058;2023-02-07T04:26:35;-5.50;99.90
7411;DHT22;3747;48.628;9.058;2023-02-07T04:29:01;-5.50;99.90
7411;DHT22;3747;48.628;9.058;2023-02-07T04:31:28;-5.50;99.90
7411;DHT22;3747;48.628;9.058;2023-02-07T04:33:55;-5.60;99.90
7411;DHT22;3747;48.628;9.058;2023-02-07T04:36:21;-5.60;99.90
7411;DHT22;3747;48.628;9.058;2023-02-07T04:38:49;-5.60;99.90
7411;DHT22;3747;48.628;9.058;2023-02-07T04:41:17;-5.60;99.90
7411;DHT22;3747;48.628;9.058;2023-02-07T04:43:43;-5.60;99.90
7411;DHT22;3747;48.628;9.058;2023-02-07T04:46:10;-5.70;99.90
7411;DHT22;3747;48.628;9.058;2023-02-07T04:48:37;-5.90;99.90
7411;DHT22;3747;48.628;9.058;2023-02-07T04:51:04;-6.00;99.90
7411;DHT22;3747;48.628;9.058;2023-02-07T04:53:30;-6.00;99.90
7411;DHT22;3747;48.628;9.058;2023-02-07T04:55:57;-6.00;99.90
7411;DHT22;3747;48.628;9.058;2023-02-07T04:58:25;-6.10;99.90
7411;DHT22;3747;48.628;9.058;2023-02-07T05:00:52;-6.10;99.90
7411;DHT22;3747;48.628;9.058;2023-02-07T05:03:19;-6.30;99.90
7411;DHT22;3747;48.628;9.058;2023-02-07T05:05:46;-6.30;99.90
7411;DHT22;3747;48.628;9.058;2023-02-07T05:08:13;-6.40;99.90
7411;DHT22;3747;48.628;9.058;2023-02-07T05:10:40;-6.50;99.90
7411;DHT22;3747;48.628;9.058;2023-02-07T05:13:06;-6.50;99.90
7411;DHT22;3747;48.628;9.058;2023-02-07T05:15:34;-6.70;99.90
7411;DHT22;3747;48.628;9.058;2023-02-07T05:18:01;-6.80;99.90
7411;DHT22;3747;48.628;9.058;2023-02-07T05:20:29;-7.00;99.90
7411;DHT22;3747;48.628;9.058;2023-02-07T05:22:56;-7.10;99.90
7411;DHT22;3747;48.628;9.058;2023-02-07T05:25:22;-7.30;99.90
7411;DHT22;3747;48.628;9.058;2023-02-07T05:27:49;-7.30;99.90
7411;DHT22;3747;48.628;9.058;2023-02-07T05:30:16;-7.40;99.90
7411;DHT22;3747;48.628;9.058;2023-02-07T05:32:44;-7.50;99.90
7411;DHT22;3747;48.628;9.058;2023-02-07T05:35:28;-7.50;99.90
7411;DHT22;3747;48.628;9.058;2023-02-07T05:37:55;-7.50;99.90
7411;DHT22;3747;48.628;9.058;2023-02-07T05:40:22;-7.40;99.90
7411;DHT22;3747;48.628;9.058;2023-02-07T05:42:49;-7.10;99.90
7411;DHT22;3747;48.628;9.058;2023-02-07T05:45:16;-6.80;99.90
7411;DHT22;3747;48.628;9.058;2023-02-07T05:47:42;-6.40;99.90
7411;DHT22;3747;48.628;9.058;2023-02-07T05:50:10;-6.30;99.90
7411;DHT22;3747;48.628;9.058;2023-02-07T05:52:37;-6.30;99.90
7411;DHT22;3747;48.628;9.058;2023-02-07T05:55:04;-6.30;99.90
7411;DHT22;3747;48.628;9.058;2023-02-07T05:57:31;-6.30;99.90
7411;DHT22;3747;48.628;9.058;2023-02-07T05:59:58;-6.40;99.90
7411;DHT22;3747;48.628;9.058;2023-02-07T06:02:25;-6.50;99.90
7411;DHT22;3747;48.628;9.058;2023-02-07T06:04:51;-6.50;99.90
7411;DHT22;3747;48.628;9.058;2023-02-07T06:07:19;-6.50;99.90
7411;DHT22;3747;48.628;9.058;2023-02-07T06:09:46;-6.60;99.90
7411;DHT22;3747;48.628;9.058;2023-02-07T06:12:13;-6.70;99.90
7411;DHT22;3747;48.628;9.058;2023-02-07T06:14:39;-6.90;99.90
7411;DHT22;3747;48.628;9.058;2023-02-07T06:17:06;-6.90;99.90
7411;DHT22;3747;48.628;9.058;2023-02-07T06:19:32;-6.90;99.90
7411;DHT22;3747;48.628;9.058;2023-02-07T06:21:59;-7.00;99.90
7411;DHT22;3747;48.628;9.058;2023-02-07T06:24:27;-7.10;99.90
7411;DHT22;3747;48.628;9.058;2023-02-07T06:26:54;-7.10;99.90
7411;DHT22;3747;48.628;9.058;2023-02-07T06:29:21;-7.10;99.90
7411;DHT22;3747;48.628;9.058;2023-02-07T06:31:47;-7.20;99.90
7411;DHT22;3747;48.628;9.058;2023-02-07T06:34:14;-7.50;99.90
7411;DHT22;3747;48.628;9.058;2023-02-07T06:36:41;-7.70;99.90
7411;DHT22;3747;48.628;9.058;2023-02-07T06:39:07;-7.80;99.90
7411;DHT22;3747;48.628;9.058;2023-02-07T06:41:35;-7.80;99.90
7411;DHT22;3747;48.628;9.058;2023-02-07T06:44:02;-7.80;99.90
7411;DHT22;3747;48.628;9.058;2023-02-07T06:46:29;-7.70;99.90
7411;DHT22;3747;48.628;9.058;2023-02-07T06:48:56;-7.70;99.90
7411;DHT22;3747;48.628;9.058;2023-02-07T06:51:23;-7.60;99.90
7411;DHT22;3747;48.628;9.058;2023-02-07T06:53:49;-7.60;99.90
7411;DHT22;3747;48.628;9.058;2023-02-07T06:56:16;-7.60;99.90
7411;DHT22;3747;48.628;9.058;2023-02-07T06:58:44;-7.60;99.90
7411;DHT22;3747;48.628;9.058;2023-02-07T07:01:11;-7.50;99.90
7411;DHT22;3747;48.628;9.058;2023-02-07T07:03:37;-7.50;99.90
7411;DHT22;3747;48.628;9.058;2023-02-07T07:06:04;-7.30;99.90
7411;DHT22;3747;48.628;9.058;2023-02-07T07:08:31;-7.30;99.90
7411;DHT22;3747;48.628;9.058;2023-02-07T07:10:58;-7.30;99.90
7411;DHT22;3747;48.628;9.058;2023-02-07T07:13:24;-7.40;99.90
7411;DHT22;3747;48.628;9.058;2023-02-07T07:15:52;-7.10;99.90
7411;DHT22;3747;48.628;9.058;2023-02-07T07:18:19;-6.90;99.90
7411;DHT22;3747;48.628;9.058;2023-02-07T07:20:46;-6.70;99.90
7411;DHT22;3747;48.628;9.058;2023-02-07T07:23:17;-6.30;99.90
7411;DHT22;3747;48.628;9.058;2023-02-07T07:25:44;-5.90;99.90
7411;DHT22;3747;48.628;9.058;2023-02-07T07:28:11;-5.70;99.90
7411;DHT22;3747;48.628;9.058;2023-02-07T07:30:37;-5.30;99.90
7411;DHT22;3747;48.628;9.058;2023-02-07T07:33:05;-5.20;99.90
7411;DHT22;3747;48.628;9.058;2023-02-07T07:35:32;-5.00;99.90
7411;DHT22;3747;48.628;9.058;2023-02-07T07:37:59;-4.50;99.90
7411;DHT22;3747;48.628;9.058;2023-02-07T07:40:26;-3.90;99.90
7411;DHT22;3747;48.628;9.058;2023-02-07T07:42:52;-3.10;99.90
7411;DHT22;3747;48.628;9.058;2023-02-07T07:45:19;-2.90;99.90
7411;DHT22;3747;48.628;9.058;2023-02-07T07:47:46;-2.40;99.90
7411;DHT22;3747;48.628;9.058;2023-02-07T07:50:14;-1.70;99.90
7411;DHT22;3747;48.628;9.058;2023-02-07T07:52:40;-1.30;99.90
7411;DHT22;3747;48.628;9.058;2023-02-07T07:55:08;-1.50;99.90
7411;DHT22;3747;48.628;9.058;2023-02-07T07:57:35;-2.10;99.90
7411;DHT22;3747;48.628;9.058;2023-02-07T08:00:02;-2.20;99.90
7411;DHT22;3747;48.628;9.058;2023-02-07T08:02:30;-2.00;99.90
7411;DHT22;3747;48.628;9.058;2023-02-07T08:04:57;-1.80;99.90
7411;DHT22;3747;48.628;9.058;2023-02-07T08:07:25;-1.60;99.90
7411;DHT22;3747;48.628;9.058;2023-02-07T08:09:51;-1.10;99.90
7411;DHT22;3747;48.628;9.058;2023-02-07T08:12:18;-1.10;99.90
7411;DHT22;3747;48.628;9.058;2023-02-07T08:14:45;-1.30;99.90
7411;DHT22;3747;48.628;9.058;2023-02-07T08:17:11;-1.50;99.90
7411;DHT22;3747;48.628;9.058;2023-02-07T08:19:38;-1.20;99.90
7411;DHT22;3747;48.628;9.058;2023-02-07T08:22:05;-1.00;99.90
7411;DHT22;3747;48.628;9.058;2023-02-07T08:24:33;-0.80;99.90
7411;DHT22;3747;48.628;9.058;2023-02-07T08:27:00;-1.80;99.90
7411;DHT22;3747;48.628;9.058;2023-02-07T08:29:27;-2.20;99.90
7411;DHT22;3747;48.628;9.058;2023-02-07T08:31:53;-2.70;99.90
7411;DHT22;3747;48.628;9.058;2023-02-07T08:34:20;-2.70;99.90
7411;DHT22;3747;48.628;9.058;2023-02-07T08:36:50;-2.70;99.90
7411;DHT22;3747;48.628;9.058;2023-02-07T08:39:26;-2.20;99.90
7411;DHT22;3747;48.628;9.058;2023-02-07T08:41:54;-1.40;99.90
7411;DHT22;3747;48.628;9.058;2023-02-07T08:44:21;-0.50;99.90
7411;DHT22;3747;48.628;9.058;2023-02-07T08:46:47;0.20;99.90
7411;DHT22;3747;48.628;9.058;2023-02-07T08:49:14;0.50;99.90
7411;DHT22;3747;48.628;9.058;2023-02-07T08:51:41;1.00;99.90
7411;DHT22;3747;48.628;9.058;2023-02-07T08:54:08;1.50;99.90
7411;DHT22;3747;48.628;9.058;2023-02-07T08:56:35;1.80;99.90
7411;DHT22;3747;48.628;9.058;2023-02-07T08:59:03;1.40;99.90
7411;DHT22;3747;48.628;9.058;2023-02-07T09:01:29;1.50;99.90
7411;DHT22;3747;48.628;9.058;2023-02-07T09:03:56;1.30;99.90
7411;DHT22;3747;48.628;9.058;2023-02-07T09:06:24;1.30;99.90
7411;DHT22;3747;48.628;9.058;2023-02-07T09:08:51;1.40;99.90
7411;DHT22;3747;48.628;9.058;2023-02-07T09:11:17;1.20;99.90
7411;DHT22;3747;48.628;9.058;2023-02-07T09:13:44;1.40;99.90
7411;DHT22;3747;48.628;9.058;2023-02-07T09:16:13;1.70;99.90
7411;DHT22;3747;48.628;9.058;2023-02-07T09:18:40;1.80;99.90
7411;DHT22;3747;48.628;9.058;2023-02-07T09:21:07;2.00;99.90
7411;DHT22;3747;48.628;9.058;2023-02-07T09:23:34;1.70;99.90
7411;DHT22;3747;48.628;9.058;2023-02-07T09:26:03;1.80;99.90
7411;DHT22;3747;48.628;9.058;2023-02-07T09:28:30;1.90;99.90
7411;DHT22;3747;48.628;9.058;2023-02-07T09:30:57;2.00;99.90
7411;DHT22;3747;48.628;9.058;2023-02-07T09:33:25;2.00;99.90
7411;DHT22;3747;48.628;9.058;2023-02-07T09:35:54;2.00;99.90
7411;DHT22;3747;48.628;9.058;2023-02-07T09:38:21;2.00;99.90
7411;DHT22;3747;48.628;9.058;2023-02-07T09:40:51;2.10;99.90
7411;DHT22;3747;48.628;9.058;2023-02-07T09:43:30;1.80;99.90
7411;DHT22;3747;48.628;9.058;2023-02-07T09:46:02;1.10;99.90
7411;DHT22;3747;48.628;9.058;2023-02-07T09:48:38;0.50;99.90
7411;DHT22;3747;48.628;9.058;2023-02-07T09:51:09;0.00;99.90
7411;DHT22;3747;48.628;9.058;2023-02-07T09:53:40;-0.50;99.90
7411;DHT22;3747;48.628;9.058;2023-02-07T09:56:08;-0.50;99.90
7411;DHT22;3747;48.628;9.058;2023-02-07T09:58:41;-0.60;99.90
7411;DHT22;3747;48.628;9.058;2023-02-07T10:01:12;-0.60;99.90
7411;DHT22;3747;48.628;9.058;2023-02-07T10:03:45;-0.60;99.90
7411;DHT22;3747;48.628;9.058;2023-02-07T10:06:17;-0.70;99.90
7411;DHT22;3747;48.628;9.058;2023-02-07T10:08:50;-0.60;99.90
7411;DHT22;3747;48.628;9.058;2023-02-07T10:11:24;-0.60;99.90
7411;DHT22;3747;48.628;9.058;2023-02-07T10:14:07;-0.50;99.90
7411;DHT22;3747;48.628;9.058;2023-02-07T10:16:46;-0.40;99.90
7411;DHT22;3747;48.628;9.058;2023-02-07T10:19:28;-0.40;99.90
7411;DHT22;3747;48.628;9.058;2023-02-07T10:22:06;-0.50;99.90
7411;DHT22;3747;48.628;9.058;2023-02-07T10:25:02;-0.60;99.90
7411;DHT22;3747;48.628;9.058;2023-02-07T10:27:36;-0.70;99.90
7411;DHT22;3747;48.628;9.058;2023-02-07T10:30:12;-0.60;99.90
7411;DHT22;3747;48.628;9.058;2023-02-07T10:32:40;-0.60;99.90
7411;DHT22;3747;48.628;9.058;2023-02-07T10:35:15;-0.60;99.90
7411;DHT22;3747;48.628;9.058;2023-02-07T10:37:44;-0.40;99.90
7411;DHT22;3747;48.628;9.058;2023-02-07T10:40:15;-0.40;99.90
7411;DHT22;3747;48.628;9.058;2023-02-07T10:42:49;-0.50;99.90
7411;DHT22;3747;48.628;9.058;2023-02-07T10:45:17;-0.50;99.90
7411;DHT22;3747;48.628;9.058;2023-02-07T10:47:44;-0.30;99.90
7411;DHT22;3747;48.628;9.058;2023-02-07T10:50:16;-0.30;99.90
7411;DHT22;3747;48.628;9.058;2023-02-07T10:52:46;-0.30;99.90
7411;DHT22;3747;48.628;9.058;2023-02-07T10:55:17;-0.20;99.90
7411;DHT22;3747;48.628;9.058;2023-02-07T10:57:52;-0.10;99.90
7411;DHT22;3747;48.628;9.058;2023-02-07T11:00:24;-0.10;99.90
7411;DHT22;3747;48.628;9.058;2023-02-07T11:02:52;-0.10;99.90
7411;DHT22;3747;48.628;9.058;2023-02-07T11:05:49;-0.10;99.90
7411;DHT22;3747;48.628;9.058;2023-02-07T11:08:22;-0.10;99.90
7411;DHT22;3747;48.628;9.058;2023-02-07T11:10:52;-0.10;99.90
7411;DHT22;3747;48.628;9.058;2023-02-07T11:13:21;-0.10;99.90
7411;DHT22;3747;48.628;9.058;2023-02-07T11:15:52;0.00;99.90
7411;DHT22;3747;48.628;9.058;2023-02-07T11:18:33;0.00;99.90
7411;DHT22;3747;48.628;9.058;2023-02-07T11:21:05;0.10;99.90
7411;DHT22;3747;48.628;9.058;2023-02-07T11:23:32;0.10;99.90
7411;DHT22;3747;48.628;9.058;2023-02-07T11:26:02;0.10;99.90
7411;DHT22;3747;48.628;9.058;2023-02-07T11:28:30;0.20;99.90
7411;DHT22;3747;48.628;9.058;2023-02-07T11:31:00;0.20;99.90
7411;DHT22;3747;48.628;9.058;2023-02-07T11:33:30;0.20;99.90
7411;DHT22;3747;48.628;9.058;2023-02-07T11:36:20;0.20;99.90
7411;DHT22;3747;48.628;9.058;2023-02-07T11:38:49;0.30;99.90
7411;DHT22;3747;48.628;9.058;2023-02-07T11:41:19;0.40;99.90
7411;DHT22;3747;48.628;9.058;2023-02-07T11:43:52;0.30;99.90
7411;DHT22;3747;48.628;9.058;2023-02-07T11:46:22;0.40;99.90
7411;DHT22;3747;48.628;9.058;2023-02-07T11:48:53;0.40;99.90
7411;DHT22;3747;48.628;9.058;2023-02-07T11:51:22;0.40;99.90
7411;DHT22;3747;48.628;9.058;2023-02-07T11:53:51;0.40;99.90
7411;DHT22;3747;48.628;9.058;2023-02-07T11:56:22;0.50;99.90
7411;DHT22;3747;48.628;9.058;2023-02-07T11:58:51;0.50;99.90
7411;DHT22;3747;48.628;9.058;2023-02-07T12:01:22;0.60;99.90
7411;DHT22;3747;48.628;9.058;2023-02-07T12:03:52;0.60;99.90
7411;DHT22;3747;48.628;9.058;2023-02-07T12:06:25;0.50;99.90
7411;DHT22;3747;48.628;9.058;2023-02-07T12:08:55;0.60;99.90
7411;DHT22;3747;48.628;9.058;2023-02-07T12:11:27;0.70;99.90
7411;DHT22;3747;48.628;9.058;2023-02-07T12:14:03;0.70;99.90
7411;DHT22;3747;48.628;9.058;2023-02-07T12:16:37;0.70;99.90
7411;DHT22;3747;48.628;9.058;2023-02-07T12:19:10;0.80;99.90
7411;DHT22;3747;48.628;9.058;2023-02-07T12:21:43;0.90;99.90
7411;DHT22;3747;48.628;9.058;2023-02-07T12:24:16;0.80;99.90
7411;DHT22;3747;48.628;9.058;2023-02-07T12:26:50;0.90;99.90
7411;DHT22;3747;48.628;9.058;2023-02-07T12:29:24;0.90;99.90
7411;DHT22;3747;48.628;9.058;2023-02-07T12:32:01;0.80;99.90
7411;DHT22;3747;48.628;9.058;2023-02-07T12:34:34;0.90;99.90
7411;DHT22;3747;48.628;9.058;2023-02-07T12:37:12;1.00;99.90
7411;DHT22;3747;48.628;9.058;2023-02-07T12:39:44;1.00;99.90
7411;DHT22;3747;48.628;9.058;2023-02-07T12:42:23;1.00;99.90
7411;DHT22;3747;48.628;9.058;2023-02-07T12:44:55;1.20;99.90
7411;DHT22;3747;48.628;9.058;2023-02-07T12:47:27;1.30;99.90
7411;DHT22;3747;48.628;9.058;2023-02-07T12:50:07;1.40;99.90
7411;DHT22;3747;48.628;9.058;2023-02-07T12:52:49;1.40;99.90
7411;DHT22;3747;48.628;9.058;2023-02-07T12:55:32;1.40;99.90
7411;DHT22;3747;48.628;9.058;2023-02-07T12:58:11;1.40;99.90
7411;DHT22;3747;48.628;9.058;2023-02-07T13:00:51;1.40;99.90
7411;DHT22;3747;48.628;9.058;2023-02-07T13:03:35;1.50;99.90
7411;DHT22;3747;48.628;9.058;2023-02-07T13:06:10;1.40;99.90
7411;DHT22;3747;48.628;9.058;2023-02-07T13:08:47;1.40;99.90
7411;DHT22;3747;48.628;9.058;2023-02-07T13:11:26;1.40;99.90
7411;DHT22;3747;48.628;9.058;2023-02-07T13:14:03;1.40;99.90
7411;DHT22;3747;48.628;9.058;2023-02-07T13:16:39;1.50;99.90
7411;DHT22;3747;48.628;9.058;2023-02-07T13:19:17;1.50;99.90
7411;DHT22;3747;48.628;9.058;2023-02-07T13:21:50;1.60;99.90
7411;DHT22;3747;48.628;9.058;2023-02-07T13:24:22;1.60;99.90
7411;DHT22;3747;48.628;9.058;2023-02-07T13:26:53;1.60;99.90
7411;DHT22;3747;48.628;9.058;2023-02-07T13:29:21;1.50;99.90
7411;DHT22;3747;48.628;9.058;2023-02-07T13:31:51;1.60;99.90
7411;DHT22;3747;48.628;9.058;2023-02-07T13:34:21;1.50;99.90
7411;DHT22;3747;48.628;9.058;2023-02-07T13:36:50;1.60;99.90
7411;DHT22;3747;48.628;9.058;2023-02-07T13:39:37;1.60;99.90
7411;DHT22;3747;48.628;9.058;2023-02-07T13:42:13;1.60;99.90
7411;DHT22;3747;48.628;9.058;2023-02-07T13:44:50;1.70;99.90
7411;DHT22;3747;48.628;9.058;2023-02-07T13:47:33;1.70;99.90
7411;DHT22;3747;48.628;9.058;2023-02-07T13:50:09;1.80;99.90
7411;DHT22;3747;48.628;9.058;2023-02-07T13:52:42;1.70;99.90
7411;DHT22;3747;48.628;9.058;2023-02-07T13:55:20;1.70;99.90
7411;DHT22;3747;48.628;9.058;2023-02-07T13:57:47;1.80;99.90
7411;DHT22;3747;48.628;9.058;2023-02-07T14:00:36;1.70;99.90
7411;DHT22;3747;48.628;9.058;2023-02-07T14:03:27;1.70;99.90
7411;DHT22;3747;48.628;9.058;2023-02-07T14:06:14;1.60;99.90
7411;DHT22;3747;48.628;9.058;2023-02-07T14:08:42;1.60;99.90
7411;DHT22;3747;48.628;9.058;2023-02-07T14:11:24;1.70;99.90
7411;DHT22;3747;48.628;9.058;2023-02-07T14:14:05;1.70;99.90
7411;DHT22;3747;48.628;9.058;2023-02-07T14:16:48;1.60;99.90
7411;DHT22;3747;48.628;9.058;2023-02-07T14:19:46;1.60;99.90
7411;DHT22;3747;48.628;9.058;2023-02-07T14:22:15;1.70;99.90
7411;DHT22;3747;48.628;9.058;2023-02-07T14:24:48;1.70;99.90
7411;DHT22;3747;48.628;9.058;2023-02-07T14:27:28;1.70;99.90
7411;DHT22;3747;48.628;9.058;2023-02-07T14:35:43;1.70;99.90
7411;DHT22;3747;48.628;9.058;2023-02-07T14:38:26;1.60;99.90
7411;DHT22;3747;48.628;9.058;2023-02-07T14:40:55;1.60;99.90
7411;DHT22;3747;48.628;9.058;2023-02-07T14:43:35;1.60;99.90
7411;DHT22;3747;48.628;9.058;2023-02-07T14:46:09;1.60;99.90
7411;DHT22;3747;48.628;9.058;2023-02-07T14:48:45;1.60;99.90
7411;DHT22;3747;48.628;9.058;2023-02-07T14:51:17;1.60;99.90
7411;DHT22;3747;48.628;9.058;2023-02-07T14:54:00;1.60;99.90
7411;DHT22;3747;48.628;9.058;2023-02-07T14:56:39;1.50;99.90
7411;DHT22;3747;48.628;9.058;2023-02-07T14:59:10;1.50;99.90
7411;DHT22;3747;48.628;9.058;2023-02-07T15:01:39;1.40;99.90
7411;DHT22;3747;48.628;9.058;2023-02-07T15:04:08;1.40;99.90
7411;DHT22;3747;48.628;9.058;2023-02-07T15:06:40;1.40;99.90
7411;DHT22;3747;48.628;9.058;2023-02-07T15:09:17;1.30;99.90
7411;DHT22;3747;48.628;9.058;2023-02-07T15:11:45;1.30;99.90
7411;DHT22;3747;48.628;9.058;2023-02-07T15:14:21;1.30;99.90
7411;DHT22;3747;48.628;9.058;2023-02-07T15:16:49;1.30;99.90
7411;DHT22;3747;48.628;9.058;2023-02-07T15:19:20;1.30;99.90
7411;DHT22;3747;48.628;9.058;2023-02-07T15:21:49;1.20;99.90
7411;DHT22;3747;48.628;9.058;2023-02-07T15:24:20;1.20;99.90
7411;DHT22;3747;48.628;9.058;2023-02-07T15:26:52;1.20;99.90
7411;DHT22;3747;48.628;9.058;2023-02-07T15:29:21;1.20;99.90
7411;DHT22;3747;48.628;9.058;2023-02-07T15:31:48;1.20;99.90
7411;DHT22;3747;48.628;9.058;2023-02-07T15:34:18;1.20;99.90
7411;DHT22;3747;48.628;9.058;2023-02-07T15:36:47;1.10;99.90
7411;DHT22;3747;48.628;9.058;2023-02-07T15:39:17;1.10;99.90
7411;DHT22;3747;48.628;9.058;2023-02-07T15:41:45;1.10;99.90
7411;DHT22;3747;48.628;9.058;2023-02-07T15:44:19;1.00;99.90
7411;DHT22;3747;48.628;9.058;2023-02-07T15:46:49;1.00;99.90
7411;DHT22;3747;48.628;9.058;2023-02-07T15:49:28;0.90;99.90
7411;DHT22;3747;48.628;9.058;2023-02-07T15:52:00;0.80;99.90
7411;DHT22;3747;48.628;9.058;2023-02-07T15:54:30;0.60;99.90
7411;DHT22;3747;48.628;9.058;2023-02-07T15:56:59;0.50;99.90
7411;DHT22;3747;48.628;9.058;2023-02-07T15:59:28;0.40;99.90
7411;DHT22;3747;48.628;9.058;2023-02-07T16:01:57;0.30;99.90
7411;DHT22;3747;48.628;9.058;2023-02-07T16:04:26;0.20;99.90
7411;DHT22;3747;48.628;9.058;2023-02-07T16:06:57;0.10;99.90
7411;DHT22;3747;48.628;9.058;2023-02-07T16:09:40;0.10;99.90
7411;DHT22;3747;48.628;9.058;2023-02-07T16:12:28;0.00;99.90
7411;DHT22;3747;48.628;9.058;2023-02-07T16:14:55;-0.20;99.90
7411;DHT22;3747;48.628;9.058;2023-02-07T16:17:23;-0.30;99.90
7411;DHT22;3747;48.628;9.058;2023-02-07T16:19:50;-0.40;99.90
7411;DHT22;3747;48.628;9.058;2023-02-07T16:22:19;-0.50;99.90
7411;DHT22;3747;48.628;9.058;2023-02-07T16:24:49;-0.60;99.90
7411;DHT22;3747;48.628;9.058;2023-02-07T16:27:18;-0.60;99.90
7411;DHT22;3747;48.628;9.058;2023-02-07T16:29:45;-0.50;99.90
7411;DHT22;3747;48.628;9.058;2023-02-07T16:32:12;-0.60;99.90
7411;DHT22;3747;48.628;9.058;2023-02-07T16:34:43;-0.70;99.90
7411;DHT22;3747;48.628;9.058;2023-02-07T16:37:10;-0.80;99.90